Time;durP1;ratioP1;P1;durP2;ratioP2;P2;SDS_P1;SDS_P2;PMS_P1;PMS_P2;Temp;Humidity;BMP_temperature;BMP_pressure;BME280_temperature;BME280_humidity;BME280_pressure;Samples;Min_cycle;Max_cycle;Signal;HPM_P1;HPM_P2
2023/02/09 03:03:15;;;;;;;30.20;22.73;;;-5.10;99.90;;;;;;4892321;29;20477;-77
2023/02/09 03:05:44;;;;;;;36.73;25.43;;;-5.20;99.90;;;;;;4895937;29;20454;-77
2023/02/09 03:08:11;;;;;;;34.37;24.17;;;-5.30;99.90;;;;;;4898134;29;20791;-77
2023/02/09 03:10:40;;;;;;;32.00;23.83;;;-5.40;99.90;;;;;;4900314;29;20522;-78
2023/02/09 03:13:28;;;;;;;36.60;25.13;;;-5.40;99.90;;;;;;4899661;29;20441;-78
2023/02/09 03:16:08;;;;;;;33.37;24.93;;;-5.50;99.90;;;;;;4895961;29;20445;-78
2023/02/09 03:18:50;;;;;;;29.67;22.57;;;-5.50;99.90;;;;;;4892418;29;20476;-78
2023/02/09 03:21:23;;;;;;;32.47;24.10;;;-5.60;99.90;;;;;;4889759;29;20498;-78
2023/02/09 03:23:56;;;;;;;32.83;23.70;;;-5.60;99.90;;;;;;4896236;29;20445;-77
2023/02/09 03:26:29;;;;;;;32.70;24.33;;;-5.60;99.90;;;;;;4895116;29;20516;-79
2023/02/09 03:28:57;;;;;;;37.63;24.23;;;-5.60;99.90;;;;;;4894136;29;20504;-77
2023/02/09 03:31:26;;;;;;;35.37;23.50;;;-5.50;99.90;;;;;;4907560;29;20464;-78
2023/02/09 03:33:56;;;;;;;32.23;24.27;;;-5.60;99.90;;;;;;4893734;29;20507;-77
2023/02/09 03:36:23;;;;;;;31.40;24.37;;;-5.50;99.90;;;;;;4913254;29;20512;-77
2023/02/09 03:38:50;;;;;;;34.20;24.80;;;-5.60;99.90;;;;;;4893721;29;20483;-78
2023/02/09 03:41:17;;;;;;;31.37;23.60;;;-5.50;99.90;;;;;;4902027;29;20479;-81
2023/02/09 03:46:28;;;;;;;35.27;23.90;;;-5.60;99.90;;;;;;4886998;29;21008;-78
2023/02/09 03:48:56;;;;;;;30.63;23.43;;;-5.60;99.90;;;;;;4892267;29;20865;-79
2023/02/09 03:51:22;;;;;;;31.30;24.03;;;-5.60;99.90;;;;;;4904999;29;20545;-82
2023/02/09 03:53:49;;;;;;;30.90;24.00;;;-5.70;99.90;;;;;;4889294;29;20463;-82
2023/02/09 03:56:16;;;;;;;32.47;23.07;;;-5.60;99.90;;;;;;4886381;29;20531;-78
2023/02/09 03:58:43;;;;;;;34.37;24.37;;;-5.60;99.90;;;;;;4888471;29;20476;-77
2023/02/09 04:01:11;;;;;;;32.50;24.90;;;-5.60;99.90;;;;;;4879999;29;20490;-78
2023/02/09 04:03:39;;;;;;;39.03;26.90;;;-5.60;99.90;;;;;;4895913;29;20461;-78
2023/02/09 04:06:08;;;;;;;30.90;22.80;;;-5.60;99.90;;;;;;4912664;29;20455;-78
2023/02/09 04:08:36;;;;;;;37.03;24.63;;;-5.60;99.90;;;;;;4896327;29;20787;-77
2023/02/09 04:11:02;;;;;;;30.20;24.77;;;-5.60;99.90;;;;;;4885460;29;20533;-78
2023/02/09 04:13:29;;;;;;;31.77;24.23;;;-5.60;99.90;;;;;;4882452;29;20466;-77
2023/02/09 04:15:56;;;;;;;31.03;24.40;;;-5.60;99.90;;;;;;4897309;29;20513;-77
2023/02/09 04:18:23;;;;;;;32.60;25.37;;;-5.60;99.90;;;;;;4882043;29;20904;-78
2023/02/09 04:20:50;;;;;;;32.27;24.60;;;-5.50;99.90;;;;;;4888400;29;20521;-83
2023/02/09 04:23:19;;;;;;;32.27;23.97;;;-5.50;99.90;;;;;;4893046;29;20481;-83
2023/02/09 04:25:45;;;;;;;32.43;24.60;;;-5.60;99.90;;;;;;4885854;29;20464;-82
2023/02/09 04:28:12;;;;;;;33.23;24.47;;;-5.70;99.90;;;;;;4896795;29;20436;-83
2023/02/09 04:30:41;;;;;;;35.47;25.73;;;-5.80;99.90;;;;;;4904532;29;20485;-84
2023/02/09 04:33:09;;;;;;;34.93;25.13;;;-5.90;99.90;;;;;;4892748;29;20507;-79
2023/02/09 04:35:36;;;;;;;31.30;24.43;;;-5.80;99.90;;;;;;4892905;29;20484;-81
2023/02/09 04:38:03;;;;;;;34.53;27.03;;;-5.90;99.90;;;;;;4892704;29;20469;-79
2023/02/09 04:40:31;;;;;;;36.07;26.63;;;-5.90;99.90;;;;;;4912985;29;20445;-76
2023/02/09 04:42:58;;;;;;;32.67;24.80;;;-5.80;99.90;;;;;;4895715;29;20456;-78
2023/02/09 04:45:24;;;;;;;30.20;24.50;;;-5.80;99.90;;;;;;4913013;29;20466;-79
2023/02/09 04:47:51;;;;;;;40.17;25.13;;;-5.80;99.90;;;;;;4915581;29;20453;-79
2023/02/09 04:50:20;;;;;;;36.20;25.37;;;-5.80;99.90;;;;;;4907143;29;20488;-80
2023/02/09 04:52:47;;;;;;;35.67;24.83;;;-5.90;99.90;;;;;;4879117;29;20445;-79
2023/02/09 04:55:14;;;;;;;36.40;25.13;;;-5.90;99.90;;;;;;4895285;29;20501;-79
2023/02/09 05:00:27;;;;;;;31.73;24.53;;;-6.00;99.90;;;;;;4885594;29;20441;-79
2023/02/09 05:02:54;;;;;;;29.50;23.67;;;-6.00;99.90;;;;;;4875228;29;20543;-79
2023/02/09 05:05:21;;;;;;;33.83;23.27;;;-6.10;99.90;;;;;;4890758;29;20503;-79
2023/02/09 05:07:48;;;;;;;35.57;25.53;;;-6.00;99.90;;;;;;4879855;29;20447;-78
2023/02/09 05:10:15;;;;;;;42.53;27.50;;;-6.10;99.90;;;;;;4891326;29;20441;-78
2023/02/09 05:12:43;;;;;;;38.07;27.53;;;-6.00;99.90;;;;;;4892575;29;20490;-78
2023/02/09 05:15:10;;;;;;;33.57;25.87;;;-6.00;99.90;;;;;;4904321;29;20488;-79
2023/02/09 05:17:37;;;;;;;38.10;27.23;;;-6.00;99.90;;;;;;4901508;29;20884;-81
2023/02/09 05:20:05;;;;;;;35.13;26.73;;;-6.00;99.90;;;;;;4899547;29;20493;-82
2023/02/09 05:22:32;;;;;;;33.57;24.90;;;-6.00;99.90;;;;;;4887589;29;20491;-81
2023/02/09 05:24:59;;;;;;;33.17;25.90;;;-6.00;99.90;;;;;;4875498;29;20877;-78
2023/02/09 05:27:26;;;;;;;36.27;26.00;;;-6.00;99.90;;;;;;4907074;29;20447;-79
2023/02/09 05:29:54;;;;;;;35.87;25.63;;;-6.00;99.90;;;;;;4905783;29;20459;-78
2023/02/09 05:32:21;;;;;;;33.27;24.27;;;-6.10;99.90;;;;;;4891082;29;20468;-78
2023/02/09 05:34:47;;;;;;;35.40;25.87;;;-6.10;99.90;;;;;;4887851;29;20482;-78
2023/02/09 05:37:14;;;;;;;34.57;25.10;;;-6.10;99.90;;;;;;4902365;29;20884;-78
2023/02/09 05:39:41;;;;;;;36.53;25.27;;;-6.10;99.90;;;;;;4895497;29;20495;-77
2023/02/09 05:42:17;;;;;;;31.17;24.33;;;-6.10;99.90;;;;;;4907830;29;20853;-78
2023/02/09 05:44:46;;;;;;;32.40;24.27;;;-6.10;99.90;;;;;;4896709;29;20486;-78
2023/02/09 05:47:16;;;;;;;33.67;24.37;;;-6.20;99.90;;;;;;4891493;29;20820;-78
2023/02/09 05:49:43;;;;;;;33.17;25.20;;;-6.20;99.90;;;;;;4907953;29;20518;-77
2023/02/09 05:52:10;;;;;;;34.13;26.27;;;-6.30;99.90;;;;;;4908376;29;20513;-78
2023/02/09 05:54:38;;;;;;;39.43;27.37;;;-6.30;99.90;;;;;;4892256;29;20832;-78
2023/02/09 05:57:05;;;;;;;39.80;28.20;;;-6.30;99.90;;;;;;4889589;29;20450;-78
2023/02/09 05:59:32;;;;;;;38.17;27.43;;;-6.30;99.90;;;;;;4895047;29;20466;-78
2023/02/09 06:01:59;;;;;;;35.33;25.93;;;-6.40;99.90;;;;;;4896493;29;20517;-77
2023/02/09 06:04:28;;;;;;;34.87;27.03;;;-6.40;99.90;;;;;;4897334;29;20482;-78
2023/02/09 06:06:55;;;;;;;37.87;25.20;;;-6.40;99.90;;;;;;4890404;29;20447;-81
2023/02/09 06:09:22;;;;;;;32.73;25.67;;;-6.40;99.90;;;;;;4878786;29;21050;-81
2023/02/09 06:11:49;;;;;;;34.60;26.37;;;-6.30;99.90;;;;;;4878070;29;20479;-83
2023/02/09 06:14:16;;;;;;;32.73;25.07;;;-6.30;99.90;;;;;;4896257;29;20475;-81
2023/02/09 06:16:43;;;;;;;33.43;25.47;;;-6.20;99.90;;;;;;4894062;29;20651;-82
2023/02/09 06:19:13;;;;;;;36.80;26.50;;;-6.20;99.90;;;;;;4911663;29;21086;-82
2023/02/09 06:21:42;;;;;;;35.47;26.70;;;-6.10;99.90;;;;;;4887798;29;20474;-83
2023/02/09 06:24:09;;;;;;;38.20;26.63;;;-6.10;99.90;;;;;;4892473;29;20454;-80
2023/02/09 06:26:36;;;;;;;33.40;26.73;;;-6.20;99.90;;;;;;4881881;29;20476;-77
2023/02/09 06:29:04;;;;;;;35.87;25.20;;;-6.20;99.90;;;;;;4897136;29;20515;-78
2023/02/09 06:31:32;;;;;;;33.87;25.13;;;-6.10;99.90;;;;;;4899741;29;20474;-78
2023/02/09 06:33:59;;;;;;;33.37;24.57;;;-6.00;99.90;;;;;;4898949;29;20488;-77
2023/02/09 06:36:26;;;;;;;35.40;25.33;;;-5.90;99.90;;;;;;4916413;29;20457;-78
2023/02/09 06:38:54;;;;;;;33.37;25.60;;;-5.90;99.90;;;;;;4902756;29;20479;-78
2023/02/09 06:41:21;;;;;;;33.93;25.47;;;-5.80;99.90;;;;;;4884218;29;20993;-82
2023/02/09 06:43:48;;;;;;;36.10;25.93;;;-5.80;99.90;;;;;;4893013;29;20450;-81
2023/02/09 06:46:15;;;;;;;33.97;26.17;;;-5.90;99.90;;;;;;4869201;29;20454;-82
2023/02/09 06:48:42;;;;;;;34.73;26.57;;;-5.80;99.90;;;;;;4909487;29;20467;-82
2023/02/09 06:51:10;;;;;;;44.57;30.00;;;-5.90;99.90;;;;;;4880926;29;20472;-83
2023/02/09 06:53:37;;;;;;;37.67;26.17;;;-5.90;99.90;;;;;;4898758;29;20450;-79
2023/02/09 06:56:06;;;;;;;35.57;26.27;;;-5.90;99.90;;;;;;4887480;29;20508;-78
2023/02/09 06:58:32;;;;;;;36.83;26.50;;;-5.90;99.90;;;;;;4913435;29;20487;-78
2023/02/09 07:01:02;;;;;;;32.93;24.97;;;-6.00;99.90;;;;;;4887639;29;20941;-79
2023/02/09 07:03:29;;;;;;;33.43;26.73;;;-6.00;99.90;;;;;;4917552;29;20453;-83
2023/02/09 07:06:02;;;;;;;38.47;27.63;;;-5.90;99.90;;;;;;4893284;29;20635;-82
2023/02/09 07:08:28;;;;;;;39.03;27.90;;;-5.90;99.90;;;;;;4899065;29;20457;-81
2023/02/09 07:10:55;;;;;;;35.83;27.20;;;-5.90;99.90;;;;;;4888284;29;20545;-79
2023/02/09 07:13:23;;;;;;;36.27;27.33;;;-5.90;99.90;;;;;;4891128;29;20504;-77
2023/02/09 07:15:55;;;;;;;33.90;26.47;;;-5.80;99.90;;;;;;4913151;29;20586;-78
2023/02/09 07:18:21;;;;;;;42.93;28.93;;;-5.80;99.90;;;;;;4885701;29;20465;-78
2023/02/09 07:20:54;;;;;;;38.77;29.57;;;-5.70;99.90;;;;;;4879249;29;21070;-77
2023/02/09 07:23:20;;;;;;;39.47;28.00;;;-5.60;99.90;;;;;;4883357;29;20465;-77
2023/02/09 07:25:47;;;;;;;38.30;28.03;;;-5.50;99.90;;;;;;4879265;29;20504;-80
2023/02/09 07:28:14;;;;;;;39.43;28.23;;;-5.50;99.90;;;;;;4888790;29;20456;-77
2023/02/09 07:30:42;;;;;;;39.57;28.57;;;-5.30;99.90;;;;;;4896417;29;20496;-78
2023/02/09 07:33:09;;;;;;;42.57;29.40;;;-5.20;99.90;;;;;;4883027;29;20998;-78
2023/02/09 07:35:39;;;;;;;37.27;28.23;;;-5.10;99.90;;;;;;4880822;29;22366;-78
2023/02/09 07:38:06;;;;;;;41.67;30.47;;;-5.10;99.90;;;;;;4875669;29;20484;-79
2023/02/09 07:40:33;;;;;;;43.20;32.23;;;-4.90;99.90;;;;;;4891903;29;20524;-78
2023/02/09 07:42:59;;;;;;;42.67;30.87;;;-4.70;99.90;;;;;;4903611;29;20467;-78
2023/02/09 07:45:26;;;;;;;40.33;30.43;;;-4.60;99.90;;;;;;4880594;29;21023;-78
2023/02/09 07:47:54;;;;;;;43.93;30.30;;;-4.40;99.90;;;;;;4888625;29;20505;-79
2023/02/09 07:50:21;;;;;;;40.93;30.77;;;-4.10;99.90;;;;;;4890367;29;20446;-79
2023/02/09 07:52:48;;;;;;;35.03;28.07;;;-4.00;99.90;;;;;;4897761;29;20448;-79
2023/02/09 07:55:15;;;;;;;38.87;28.20;;;-3.90;99.90;;;;;;4892801;29;20461;-78
2023/02/09 07:57:43;;;;;;;57.47;34.80;;;-3.70;99.90;;;;;;4897973;29;20461;-79
2023/02/09 08:00:12;;;;;;;68.30;39.87;;;-3.40;99.90;;;;;;4898825;29;20484;-79
2023/02/09 08:02:43;;;;;;;92.23;43.40;;;-3.30;99.90;;;;;;4876171;29;20555;-77
2023/02/09 08:05:17;;;;;;;50.53;32.27;;;-3.10;99.90;;;;;;4898306;29;20444;-77
2023/02/09 08:07:44;;;;;;;37.13;29.13;;;-3.00;99.90;;;;;;4898556;29;20462;-77
2023/02/09 08:10:10;;;;;;;38.17;27.67;;;-2.80;99.90;;;;;;4896353;29;20987;-81
2023/02/09 08:15:23;;;;;;;34.80;27.77;;;-2.20;99.90;;;;;;4886147;29;20469;-77
2023/02/09 08:17:53;;;;;;;38.90;27.67;;;-2.00;99.90;;;;;;4886078;29;20495;-78
2023/02/09 08:20:25;;;;;;;36.27;28.03;;;-1.70;99.90;;;;;;4887884;29;20477;-78
2023/02/09 08:22:55;;;;;;;32.70;26.47;;;-1.30;99.90;;;;;;4889126;29;20453;-78
2023/02/09 08:25:24;;;;;;;39.37;28.97;;;-0.90;99.90;;;;;;4879092;29;20525;-78
2023/02/09 08:27:52;;;;;;;40.03;29.67;;;-0.60;99.90;;;;;;4889620;29;20465;-78
2023/02/09 08:30:19;;;;;;;34.80;29.10;;;-0.30;99.90;;;;;;4873369;29;21018;-78
2023/02/09 08:32:46;;;;;;;38.33;29.67;;;-0.10;99.90;;;;;;4886149;29;20468;-77
2023/02/09 08:35:13;;;;;;;34.50;28.30;;;0.20;99.90;;;;;;4890974;29;20497;-79
2023/02/09 08:37:41;;;;;;;37.67;27.47;;;0.50;99.90;;;;;;4886599;29;20446;-79
2023/02/09 08:40:09;;;;;;;32.63;28.07;;;0.70;99.90;;;;;;4907206;29;20470;-79
2023/02/09 08:42:36;;;;;;;33.63;27.30;;;0.90;99.90;;;;;;4894754;29;20474;-78
2023/02/09 08:45:03;;;;;;;33.90;27.70;;;1.00;99.90;;;;;;4877584;29;20809;-78
2023/02/09 08:47:29;;;;;;;31.67;27.47;;;1.00;99.90;;;;;;4893884;29;20532;-78
2023/02/09 08:49:57;;;;;;;35.67;26.60;;;1.30;99.90;;;;;;4879801;29;20817;-79
2023/02/09 08:52:24;;;;;;;34.63;29.03;;;1.50;99.90;;;;;;4891537;29;20561;-79
2023/02/09 08:54:52;;;;;;;34.43;29.63;;;1.80;99.90;;;;;;4899254;29;20475;-79
2023/02/09 08:57:19;;;;;;;33.97;29.23;;;1.70;99.90;;;;;;4878809;29;20496;-77
2023/02/09 08:59:46;;;;;;;33.03;28.40;;;1.70;99.90;;;;;;4874815;29;21006;-77
2023/02/09 09:02:13;;;;;;;34.67;28.13;;;1.90;99.90;;;;;;4875038;29;20489;-77
2023/02/09 09:04:39;;;;;;;35.87;29.10;;;2.20;99.90;;;;;;4876291;29;20490;-76
2023/02/09 09:07:06;;;;;;;32.77;28.20;;;2.40;99.90;;;;;;4892080;29;20502;-77
2023/02/09 09:09:33;;;;;;;31.97;27.57;;;2.40;99.90;;;;;;4884357;29;20437;-79
2023/02/09 09:12:01;;;;;;;32.30;27.87;;;2.40;99.90;;;;;;4882226;29;20501;-77
2023/02/09 09:14:28;;;;;;;36.00;29.17;;;2.30;99.90;;;;;;4879757;29;20209;-77
2023/02/09 09:16:57;;;;;;;32.67;27.57;;;2.30;99.90;;;;;;4875987;29;20209;-76
2023/02/09 09:19:24;;;;;;;34.37;28.43;;;2.30;99.90;;;;;;4880281;29;20208;-76
2023/02/09 09:21:51;;;;;;;31.77;28.20;;;2.20;99.90;;;;;;4891042;29;20657;-77
2023/02/09 09:24:18;;;;;;;32.93;27.30;;;2.30;99.90;;;;;;4878826;29;20688;-77
2023/02/09 09:26:45;;;;;;;34.33;29.13;;;2.40;99.90;;;;;;4888056;29;20469;-76
2023/02/09 09:29:13;;;;;;;36.20;30.03;;;2.40;99.90;;;;;;4876369;29;20201;-76
2023/02/09 09:31:41;;;;;;;33.20;29.13;;;2.20;99.90;;;;;;4877973;29;20570;-77
2023/02/09 09:34:08;;;;;;;32.63;28.03;;;2.40;99.90;;;;;;4879676;29;20225;-80
2023/02/09 09:36:34;;;;;;;33.40;27.93;;;2.50;99.90;;;;;;4892868;29;20201;-77
2023/02/09 09:39:01;;;;;;;34.27;27.93;;;2.60;99.90;;;;;;4892513;29;20209;-77
2023/02/09 09:41:31;;;;;;;36.87;29.60;;;2.60;99.90;;;;;;4877148;29;20260;-77
2023/02/09 09:43:59;;;;;;;34.93;29.20;;;2.60;99.90;;;;;;4892668;29;20205;-77
2023/02/09 09:46:35;;;;;;;29.27;26.07;;;2.60;99.90;;;;;;4879817;29;20204;-77
2023/02/09 09:49:02;;;;;;;38.10;29.50;;;2.70;99.90;;;;;;4879428;29;20278;-77
2023/02/09 09:51:38;;;;;;;34.80;27.97;;;2.40;99.90;;;;;;4877094;29;20249;-78
2023/02/09 09:54:07;;;;;;;37.53;29.97;;;2.40;99.90;;;;;;4874614;29;20205;-77
2023/02/09 09:56:34;;;;;;;35.13;29.10;;;2.40;99.90;;;;;;4890189;29;20206;-78
2023/02/09 09:59:01;;;;;;;34.00;28.03;;;2.40;99.90;;;;;;4878981;29;20208;-77
2023/02/09 10:01:32;;;;;;;35.00;28.17;;;2.30;99.90;;;;;;4878244;29;20304;-77
2023/02/09 10:04:02;;;;;;;32.03;28.23;;;2.20;99.90;;;;;;4876819;29;20207;-77
2023/02/09 10:06:32;;;;;;;33.60;27.27;;;2.20;99.90;;;;;;4877434;29;20198;-76
2023/02/09 10:09:02;;;;;;;34.23;26.77;;;2.10;99.90;;;;;;4878390;29;20456;-77
2023/02/09 10:11:36;;;;;;;32.20;26.87;;;2.20;99.90;;;;;;4877150;29;20799;-81
2023/02/09 10:14:03;;;;;;;30.90;27.10;;;2.20;99.90;;;;;;4883643;29;20223;-82
2023/02/09 10:16:36;;;;;;;33.60;26.90;;;2.10;99.90;;;;;;4880965;29;20201;-77
2023/02/09 10:19:05;;;;;;;34.57;27.23;;;2.00;99.90;;;;;;4878075;29;20548;-77
2023/02/09 10:21:34;;;;;;;32.10;26.70;;;1.90;99.90;;;;;;4878144;29;20277;-77
2023/02/09 10:24:12;;;;;;;32.47;26.33;;;1.90;99.90;;;;;;4878403;29;20456;-77
2023/02/09 10:26:41;;;;;;;31.97;27.53;;;1.90;99.90;;;;;;4875830;29;20509;-77
2023/02/09 10:29:23;;;;;;;33.73;27.60;;;1.80;99.90;;;;;;4876484;29;20213;-77
2023/02/09 10:31:55;;;;;;;33.37;27.10;;;1.80;99.90;;;;;;4870639;29;20481;-77
2023/02/09 10:34:28;;;;;;;36.43;28.27;;;1.80;99.90;;;;;;4876339;29;21832;-77
2023/02/09 10:37:15;;;;;;;32.30;26.53;;;1.70;99.90;;;;;;4893994;29;21046;-77
2023/02/09 10:39:42;;;;;;;31.70;26.13;;;1.70;99.90;;;;;;4882014;29;21031;-76
2023/02/09 10:42:18;;;;;;;39.83;27.83;;;1.60;99.90;;;;;;4900321;29;20570;-82
2023/02/09 10:44:49;;;;;;;36.50;28.37;;;1.50;99.90;;;;;;4891781;29;20817;-78
2023/02/09 10:47:28;;;;;;;35.47;27.90;;;1.50;99.90;;;;;;4880893;29;20464;-78
2023/02/09 10:49:59;;;;;;;35.23;26.60;;;1.60;99.90;;;;;;4881162;29;20447;-77
2023/02/09 10:52:30;;;;;;;32.73;26.60;;;1.50;99.90;;;;;;4883579;29;20980;-78
2023/02/09 10:55:01;;;;;;;32.57;27.10;;;1.50;99.90;;;;;;4882565;29;20510;-77
2023/02/09 10:57:30;;;;;;;35.50;27.00;;;1.60;99.90;;;;;;4883415;29;20520;-81
2023/02/09 10:59:59;;;;;;;34.23;27.30;;;1.60;99.90;;;;;;4879747;29;20483;-83
2023/02/09 11:02:36;;;;;;;31.10;26.07;;;1.70;99.90;;;;;;4894676;29;20822;-81
2023/02/09 11:05:04;;;;;;;32.00;26.53;;;1.80;99.90;;;;;;4886165;29;20511;-84
2023/02/09 11:07:37;;;;;;;30.37;26.13;;;1.80;99.90;;;;;;4899119;29;20460;-84
2023/02/09 11:10:11;;;;;;;31.80;25.77;;;1.80;99.90;;;;;;4885003;29;20454;-85
2023/02/09 11:12:38;;;;;;;30.30;25.73;;;1.90;99.90;;;;;;4881530;29;20217;-85
2023/02/09 11:15:12;;;;;;;30.07;25.47;;;1.90;99.90;;;;;;4884885;29;20212;-82
2023/02/09 11:17:44;;;;;;;35.03;28.07;;;2.00;99.90;;;;;;4881002;29;20213;-77
2023/02/09 11:20:19;;;;;;;32.77;26.87;;;2.10;99.90;;;;;;4877061;29;20465;-78
2023/02/09 11:23:03;;;;;;;33.53;27.60;;;2.10;99.90;;;;;;4880203;29;20548;-78
2023/02/09 11:25:36;;;;;;;29.37;24.27;;;2.10;99.90;;;;;;4882013;29;20858;-78
2023/02/09 11:28:39;;;;;;;31.00;25.27;;;2.20;99.90;;;;;;4882135;29;20754;-78
2023/02/09 11:31:23;;;;;;;30.83;25.57;;;2.20;99.90;;;;;;4842533;29;20479;-78
2023/02/09 11:33:58;;;;;;;31.10;25.40;;;2.20;99.90;;;;;;4882145;29;20882;-78
2023/02/09 11:36:40;;;;;;;31.27;26.13;;;2.30;99.90;;;;;;4884219;29;20199;-78
2023/02/09 11:39:13;;;;;;;28.63;24.90;;;2.30;99.90;;;;;;4884042;29;21005;-78
2023/02/09 11:44:36;;;;;;;30.67;25.10;;;2.30;99.90;;;;;;4883054;29;20215;-78
2023/02/09 11:47:07;;;;;;;28.60;25.20;;;2.20;99.90;;;;;;4891602;29;20683;-78
2023/02/09 11:49:44;;;;;;;28.57;24.70;;;2.30;99.90;;;;;;4879087;29;20298;-78
2023/02/09 11:52:15;;;;;;;33.07;26.97;;;2.40;99.90;;;;;;4891148;29;20237;-78
2023/02/09 11:54:47;;;;;;;29.83;24.30;;;2.50;99.90;;;;;;4903725;29;20237;-78
2023/02/09 11:57:21;;;;;;;29.43;25.83;;;2.50;99.90;;;;;;4908201;29;20213;-78
2023/02/09 11:59:56;;;;;;;31.60;25.53;;;2.50;99.90;;;;;;4908553;29;20465;-78
2023/02/09 12:02:37;;;;;;;33.07;25.33;;;2.40;99.90;;;;;;4907902;29;20284;-77
2023/02/09 12:05:09;;;;;;;30.53;26.00;;;2.50;99.90;;;;;;4904088;29;20517;-78
2023/02/09 12:07:47;;;;;;;32.90;25.73;;;2.40;99.90;;;;;;4883191;29;20196;-79
2023/02/09 12:10:24;;;;;;;31.50;25.30;;;2.40;99.90;;;;;;4904173;29;20263;-78
2023/02/09 12:12:57;;;;;;;27.87;22.97;;;2.50;99.90;;;;;;4910388;29;20212;-80
2023/02/09 12:15:29;;;;;;;31.33;24.63;;;2.60;99.90;;;;;;4908475;29;20496;-80
2023/02/09 12:17:58;;;;;;;31.70;25.30;;;2.70;99.90;;;;;;4889105;29;20468;-79
2023/02/09 12:20:31;;;;;;;28.87;24.53;;;2.60;99.90;;;;;;4895725;29;20665;-79
2023/02/09 12:23:06;;;;;;;30.50;24.83;;;2.70;99.90;;;;;;4879120;29;20247;-77
2023/02/09 12:25:50;;;;;;;31.57;25.40;;;2.70;99.90;;;;;;4884761;29;20204;-78
2023/02/09 12:28:33;;;;;;;28.70;24.20;;;2.80;99.90;;;;;;4902854;29;20213;-78
2023/02/09 12:31:08;;;;;;;26.90;22.60;;;2.90;99.90;;;;;;4888437;29;20605;-77
2023/02/09 12:33:37;;;;;;;28.37;24.03;;;2.90;99.90;;;;;;4894542;29;20508;-79
2023/02/09 12:36:21;;;;;;;24.67;21.93;;;3.00;99.90;;;;;;4892630;29;20229;-79
2023/02/09 12:39:01;;;;;;;25.77;22.10;;;3.10;99.90;;;;;;4895222;29;20661;-81
2023/02/09 12:41:29;;;;;;;26.50;22.37;;;3.20;99.90;;;;;;4895803;29;20229;-75
2023/02/09 12:44:21;;;;;;;25.73;21.63;;;3.20;99.90;;;;;;4916957;29;20205;-81
2023/02/09 12:46:52;;;;;;;27.43;22.60;;;3.20;99.90;;;;;;4911020;29;20205;-82
2023/02/09 12:49:21;;;;;;;23.63;21.07;;;3.20;99.90;;;;;;4900722;29;20646;-77
2023/02/09 12:51:54;;;;;;;24.37;21.70;;;3.30;99.90;;;;;;4877657;29;20213;-78
2023/02/09 12:54:49;;;;;;;22.97;20.77;;;3.40;99.90;;;;;;4874386;29;20206;-77
2023/02/09 12:57:55;;;;;;;27.37;22.83;;;3.40;99.90;;;;;;4846526;29;20213;-78
2023/02/09 13:00:48;;;;;;;25.73;22.37;;;3.50;99.90;;;;;;4875066;29;20213;-78
2023/02/09 13:03:19;;;;;;;24.47;21.63;;;3.50;99.90;;;;;;4886558;29;20208;-78
2023/02/09 13:05:48;;;;;;;28.47;23.33;;;3.50;99.90;;;;;;4880613;29;20206;-77
2023/02/09 13:08:34;;;;;;;23.97;21.37;;;3.60;99.90;;;;;;4891418;29;20212;-78
2023/02/09 13:11:04;;;;;;;23.60;21.07;;;3.60;99.90;;;;;;4877462;29;20222;-78
2023/02/09 13:13:44;;;;;;;26.23;22.67;;;3.70;99.90;;;;;;4896024;29;20577;-79
2023/02/09 13:16:44;;;;;;;26.90;22.33;;;3.70;99.90;;;;;;4884493;29;20197;-81
2023/02/09 13:19:22;;;;;;;27.30;22.63;;;3.70;99.90;;;;;;4894719;29;20216;-78
2023/02/09 13:22:01;;;;;;;29.60;23.40;;;3.80;99.90;;;;;;4889396;29;20297;-78
2023/02/09 13:24:37;;;;;;;24.43;21.97;;;3.80;99.90;;;;;;4891549;29;20694;-78
2023/02/09 13:27:18;;;;;;;26.77;21.53;;;3.90;99.90;;;;;;4895032;29;20256;-78
2023/02/09 13:29:48;;;;;;;22.43;20.10;;;4.00;99.90;;;;;;4887180;29;20197;-78
2023/02/09 13:32:29;;;;;;;21.83;19.50;;;4.00;99.90;;;;;;4910402;29;20778;-78
2023/02/09 13:35:00;;;;;;;22.87;20.03;;;4.10;99.90;;;;;;4887099;29;20627;-78
2023/02/09 13:37:33;;;;;;;22.80;20.37;;;4.00;99.90;;;;;;4906945;29;20200;-78
2023/02/09 13:40:03;;;;;;;24.27;21.13;;;4.00;99.90;;;;;;4886285;29;20202;-78
2023/02/09 13:42:34;;;;;;;23.00;20.53;;;4.10;99.90;;;;;;4907657;29;20272;-79
2023/02/09 13:45:02;;;;;;;21.10;18.97;;;4.10;99.90;;;;;;4889438;29;20258;-78
2023/02/09 13:47:29;;;;;;;21.67;19.47;;;4.10;99.90;;;;;;4908149;29;20583;-79
2023/02/09 13:50:01;;;;;;;22.17;19.83;;;4.10;99.90;;;;;;4907502;29;20231;-78
2023/02/09 13:52:33;;;;;;;20.63;18.53;;;4.20;99.90;;;;;;4891774;29;20233;-78
2023/02/09 13:55:11;;;;;;;20.97;18.70;;;4.20;99.90;;;;;;4883899;29;20578;-79
2023/02/09 13:57:41;;;;;;;24.07;19.93;;;4.20;99.90;;;;;;4900818;29;20312;-78
2023/02/09 14:00:15;;;;;;;21.37;19.10;;;4.30;99.90;;;;;;4881336;29;20739;-79
2023/02/09 14:02:49;;;;;;;21.93;18.57;;;4.30;99.90;;;;;;4885199;29;20315;-78
2023/02/09 14:05:31;;;;;;;20.20;18.03;;;4.30;99.90;;;;;;4889265;29;20206;-79
2023/02/09 14:07:58;;;;;;;22.00;18.73;;;4.30;99.90;;;;;;4897856;29;20624;-78
2023/02/09 14:10:28;;;;;;;20.83;18.53;;;4.30;99.90;;;;;;4880861;29;20197;-80
2023/02/09 14:13:01;;;;;;;21.30;19.13;;;4.30;99.90;;;;;;4885850;29;20280;-78
2023/02/09 14:18:23;;;;;;;23.20;20.70;;;4.40;99.90;;;;;;4891317;29;20291;-78
2023/02/09 14:21:01;;;;;;;22.00;19.63;;;4.30;99.90;;;;;;4914810;29;20229;-78
2023/02/09 14:23:31;;;;;;;22.90;19.97;;;4.40;99.90;;;;;;4913460;29;20204;-78
2023/02/09 14:26:05;;;;;;;20.93;18.80;;;4.40;99.90;;;;;;4914382;29;20213;-78
2023/02/09 14:28:33;;;;;;;23.63;18.97;;;4.40;99.90;;;;;;4892157;29;20733;-79
2023/02/09 14:31:00;;;;;;;20.97;18.73;;;4.40;99.90;;;;;;4889985;29;20226;-83
2023/02/09 14:33:28;;;;;;;22.10;19.53;;;4.40;99.90;;;;;;4899364;29;20208;-78
2023/02/09 14:35:58;;;;;;;21.27;19.07;;;4.40;99.90;;;;;;4906595;29;20717;-79
2023/02/09 14:38:41;;;;;;;21.13;18.93;;;4.50;99.90;;;;;;4914088;29;20229;-77
2023/02/09 14:41:31;;;;;;;21.77;18.80;;;4.50;99.90;;;;;;4894724;29;20232;-84
2023/02/09 14:44:00;;;;;;;19.83;17.73;;;4.50;99.90;;;;;;4891268;29;20201;-76
2023/02/09 14:46:27;;;;;;;20.53;17.97;;;4.50;99.90;;;;;;4886493;29;20197;-77
2023/02/09 14:48:57;;;;;;;18.80;17.00;;;4.50;99.90;;;;;;4881472;29;20738;-76
2023/02/09 14:51:26;;;;;;;21.50;18.50;;;4.50;99.90;;;;;;4884472;29;20709;-77
2023/02/09 14:53:53;;;;;;;21.17;18.30;;;4.60;99.90;;;;;;4905245;29;20197;-77
2023/02/09 14:56:24;;;;;;;20.90;18.87;;;4.60;99.90;;;;;;4891729;29;20213;-84
2023/02/09 14:58:53;;;;;;;20.00;17.90;;;4.60;99.90;;;;;;4896638;29;20205;-85
2023/02/09 15:01:20;;;;;;;21.40;18.23;;;4.60;99.90;;;;;;4884220;29;20241;-85
2023/02/09 15:03:47;;;;;;;22.60;19.70;;;4.50;99.90;;;;;;4886144;29;20217;-84
2023/02/09 15:06:14;;;;;;;24.47;19.83;;;4.50;99.90;;;;;;4890231;29;20206;-84
2023/02/09 15:08:42;;;;;;;21.97;19.57;;;4.60;99.90;;;;;;4887166;29;20272;-84
2023/02/09 15:14:03;;;;;;;19.87;17.77;;;4.60;99.90;;;;;;4898818;29;20237;-84
2023/02/09 15:16:30;;;;;;;20.57;18.43;;;4.50;99.90;;;;;;4901935;29;20264;-84
2023/02/09 15:18:57;;;;;;;19.43;17.47;;;4.60;99.90;;;;;;4882171;29;20238;-85
2023/02/09 15:21:24;;;;;;;27.07;20.60;;;4.50;99.90;;;;;;4886406;29;20229;-84
2023/02/09 15:23:50;;;;;;;24.00;21.03;;;4.50;99.90;;;;;;4886199;29;20200;-85
2023/02/09 15:26:19;;;;;;;24.97;20.50;;;4.40;99.90;;;;;;4898505;29;20217;-85
2023/02/09 15:28:46;;;;;;;24.23;20.77;;;4.30;99.90;;;;;;4887676;29;20248;-84
2023/02/09 15:31:14;;;;;;;23.67;20.93;;;4.20;99.90;;;;;;4891142;29;20236;-85
2023/02/09 15:33:41;;;;;;;23.63;20.47;;;4.10;99.90;;;;;;4902370;29;20606;-85
2023/02/09 15:36:11;;;;;;;22.93;20.20;;;4.10;99.90;;;;;;4906562;29;20327;-79
2023/02/09 15:38:38;;;;;;;24.67;20.07;;;4.00;99.90;;;;;;4920565;29;20208;-78
2023/02/09 15:49:20;;;;;;;23.17;20.63;;;3.70;99.90;;;;;;4905484;29;20208;-78
2023/02/09 15:51:47;;;;;;;23.10;20.60;;;3.60;99.90;;;;;;4889322;29;20218;-78
2023/02/09 15:54:16;;;;;;;22.50;19.13;;;3.60;99.90;;;;;;4906029;29;20205;-82
2023/02/09 15:56:43;;;;;;;22.27;19.87;;;3.50;99.90;;;;;;4898137;29;20634;-77
2023/02/09 15:59:16;;;;;;;24.30;21.23;;;3.40;99.90;;;;;;4914293;29;20268;-77
2023/02/09 16:01:44;;;;;;;24.03;20.97;;;3.30;99.90;;;;;;4888205;29;20296;-78
2023/02/09 16:04:11;;;;;;;25.40;22.80;;;3.20;99.90;;;;;;4896293;29;20205;-77
2023/02/09 16:06:38;;;;;;;23.53;20.87;;;3.20;99.90;;;;;;4892791;29;20256;-78
2023/02/09 16:09:05;;;;;;;23.33;20.83;;;3.10;99.90;;;;;;4902339;29;20568;-78
2023/02/09 16:11:39;;;;;;;22.90;20.47;;;3.00;99.90;;;;;;4904648;29;20701;-85
2023/02/09 16:14:15;;;;;;;23.00;20.53;;;2.90;99.90;;;;;;4892459;29;20606;-78
2023/02/09 16:16:42;;;;;;;22.27;19.93;;;2.80;99.90;;;;;;4896252;29;20236;-79